Flight Track Log - Related Links

Times and Time Zones

All times are in EDT time to prevent confusion due to time zone crossing. See the N777JE flight status page for this flight to view local times or setup timezone preferences in your user account.

Time Position Orientation Groundspeed Altitude Reporting Facility
EDT Latitude Longitude Course Direction KTS MPH feet Rate Location/Type
Thu 03:05:43 PM 33.3500 -84.6833 315° West 163 188 5,000  Level Atlanta TRACON
Thu 03:10:43 PM 33.5333 -84.9000 360° North 244 281 7,000 333 Climbing Atlanta TRACON
Thu 03:11:43 PM 33.6000 -84.9000 360° North 243 280 7,000  Level Atlanta TRACON
Thu 03:12:43 PM 33.6667 -84.9000 12° North 247 284 7,000  Level Atlanta TRACON
Thu 03:13:43 PM 33.7333 -84.8833 12° North 248 285 7,000 263 Level Atlanta TRACON
Thu 03:14:37 PM 33.8000 -84.8667 29° Northeast 250 288 7,500 947 Climbing Atlanta TRACON
Thu 03:15:37 PM 33.8500 -84.8333 23° Northeast 220 253 8,800 714 Climbing Atlanta TRACON
Thu 03:16:43 PM 33.9167 -84.8000 12° North 243 280 9,000 107 Climbing Atlanta TRACON
Thu 03:17:29 PM 33.9819 -84.7828 22° Northeast 252 290 9,000  Level Atlanta Center
Thu 03:18:29 PM 34.0489 -84.7508 20° North 257 296 9,000 250 Level Atlanta Center
Thu 03:19:29 PM 34.1097 -84.7236 22° Northeast 284 327 9,500 700 Climbing Atlanta Center
Thu 03:20:29 PM 34.1703 -84.6942 20° North 251 289 10,400 750 Climbing Atlanta Center
Thu 03:21:29 PM 34.2308 -84.6669 21° North 231 266 11,000 300 Climbing Atlanta Center
Thu 03:22:29 PM 34.2894 -84.6397 342° North 231 266 11,000 200 Level Atlanta Center
Thu 03:23:29 PM 34.3561 -84.6653 336° Northwest 244 281 11,400 1,000 Climbing Atlanta Center
Thu 03:24:29 PM 34.4083 -84.6933 333° Northwest 224 258 13,000 1,250 Climbing Atlanta Center
Thu 03:25:29 PM 34.4497 -84.7189 336° Northwest 208 239 13,900 1,150 Climbing Atlanta Center
Thu 03:26:29 PM 34.5164 -84.7547 336° Northwest 208 239 15,300 1,300 Climbing Atlanta Center
Thu 03:27:29 PM 34.5683 -84.7831 341° North 208 239 16,500 1,200 Climbing Atlanta Center
Thu 03:28:29 PM 34.6247 -84.8061 344° North 208 239 17,700 1,150 Climbing Atlanta Center
Thu 03:29:29 PM 34.6789 -84.8244 348° North 207 238 18,800 1,000 Climbing Atlanta Center
Thu 03:30:29 PM 34.7372 -84.8400 335° Northwest 207 238 19,700 850 Climbing Atlanta Center
Thu 03:31:29 PM 34.7911 -84.8708 337° Northwest 207 238 20,500 900 Climbing Atlanta Center
Thu 03:32:29 PM 34.8453 -84.8992 333° Northwest 214 246 21,500 900 Climbing Atlanta Center
Thu 03:33:29 PM 34.8992 -84.9328 337° Northwest 214 246 22,300 750 Climbing Atlanta Center
Thu 03:34:29 PM 34.9533 -84.9611 333° Northwest 214 246 23,000 650 Climbing Atlanta Center
Thu 03:35:29 PM 35.0072 -84.9947 334° Northwest 214 246 23,600 500 Climbing Atlanta Center
Thu 03:36:29 PM 35.0633 -85.0283 335° Northwest 214 246 24,000 200 Climbing Atlanta Center
Thu 03:37:29 PM 35.1236 -85.0622 336° Northwest 219 252 24,000  Level Atlanta Center
Thu 03:38:29 PM 35.1858 -85.0958 333° Northwest 230 265 24,000  Level Atlanta Center
Thu 03:39:29 PM 35.2481 -85.1350 336° Northwest 230 265 24,000  Level Atlanta Center
Thu 03:40:29 PM 35.3083 -85.1686 334° Northwest 230 265 24,000  Level Atlanta Center
Thu 03:42:08 PM 35.3994 -85.2222 336° Northwest 249 287 24,000  Level Memphis Center
Thu 03:43:08 PM 35.4614 -85.2567 334° Northwest 243 280 24,000  Level Memphis Center
Thu 03:44:08 PM 35.5192 -85.2914 333° Northwest 243 280 24,000  Level Memphis Center
Thu 03:45:08 PM 35.5792 -85.3283 336° Northwest 243 280 24,000  Level Memphis Center
Thu 03:46:08 PM 35.6389 -85.3606 334° Northwest 243 280 24,000  Level Memphis Center
Thu 03:47:08 PM 35.6964 -85.3953 333° Northwest 243 280 24,000  Level Memphis Center
Thu 03:48:08 PM 35.7564 -85.4328 336° Northwest 243 280 24,000  Level Memphis Center
Thu 03:49:08 PM 35.8139 -85.4650 335° Northwest 238 274 24,000  Level Memphis Center
Thu 03:50:08 PM 35.8736 -85.5000 334° Northwest 238 274 24,000  Level Memphis Center
Thu 03:51:08 PM 35.9314 -85.5350 333° Northwest 238 274 24,000  Level Memphis Center
Thu 03:52:08 PM 35.9956 -85.5747 335° Northwest 233 268 24,000  Level Memphis Center
Thu 03:53:08 PM 36.0531 -85.6075 335° Northwest 233 268 24,000  Level Memphis Center
Thu 03:54:08 PM 36.1128 -85.6425 334° Northwest 233 268 24,000  Level Memphis Center
Thu 03:55:08 PM 36.1703 -85.6778 335° Northwest 233 268 24,000  Level Memphis Center
Thu 03:56:08 PM 36.2300 -85.7131 334° Northwest 233 268 24,000  Level Memphis Center
Thu 03:57:08 PM 36.2875 -85.7483 335° Northwest 233 268 24,000  Level Memphis Center
Thu 03:58:08 PM 36.3472 -85.7836 336° Northwest 233 268 24,000  Level Memphis Center
Thu 03:59:08 PM 36.4069 -85.8161 334° Northwest 233 268 24,000  Level Memphis Center
Thu 04:00:08 PM 36.4664 -85.8517 335° Northwest 233 268 24,000  Level Memphis Center
Thu 04:01:08 PM 36.5239 -85.8844 334° Northwest 233 268 24,000 -500 Level Memphis Center
Thu 04:02:08 PM 36.5858 -85.9225 333° Northwest 233 268 23,000 -1,000 Descending Memphis Center
Thu 04:03:08 PM 36.6539 -85.9653 334° Northwest 260 299 22,000 -500 Descending Memphis Center
Thu 04:04:08 PM 36.7117 -86.0008 335° Northwest 260 299 22,000  Level Memphis Center
Thu 04:05:08 PM 36.7733 -86.0364 333° Northwest 254 292 22,000  Level Memphis Center
Thu 04:06:08 PM 36.8328 -86.0747 334° Northwest 249 287 22,000 -50 Level Memphis Center
Thu 04:07:08 PM 36.8925 -86.1106 334° Northwest 244 281 21,900 -500 Descending Memphis Center
Thu 04:08:08 PM 36.9583 -86.1511 334° Northwest 249 287 21,000 -780 Descending Memphis Center
Thu 04:10:28 PM 37.1050 -86.2392 334° Northwest 269 310 19,300 -810 Descending Indianapolis Center
Thu 04:11:28 PM 37.1872 -86.2892 334° Northwest 269 310 18,300 -900 Descending Indianapolis Center
Thu 04:12:28 PM 37.2508 -86.3281 333° Northwest 263 303 17,500 -900 Descending Indianapolis Center
Thu 04:13:28 PM 37.3186 -86.3722 333° Northwest 263 303 16,500 -1,000 Descending Indianapolis Center
Thu 04:14:28 PM 37.3844 -86.4139 335° Northwest 258 297 15,500 -1,000 Descending Indianapolis Center
Thu 04:15:28 PM 37.4522 -86.4533 333° Northwest 264 304 14,500 -1,000 Descending Indianapolis Center
Thu 04:16:28 PM 37.5181 -86.4950 334° Northwest 264 304 13,500 -1,000 Descending Indianapolis Center
Thu 04:17:28 PM 37.5778 -86.5314 335° Northwest 264 304 12,500 -1,000 Descending Indianapolis Center
Thu 04:18:28 PM 37.6456 -86.5708 337° Northwest 264 304 11,500 -750 Descending Indianapolis Center
Thu 04:19:28 PM 37.7092 -86.6050 338° Northwest 254 292 11,000 -250 Descending Indianapolis Center
Thu 04:20:28 PM 37.7711 -86.6364 338° Northwest 254 292 11,000 -200 Level Indianapolis Center
Thu 04:21:28 PM 37.8328 -86.6681 339° North 244 281 10,600 -950 Descending Indianapolis Center
Thu 04:22:28 PM 37.8986 -86.6997 338° Northwest 244 281 9,100 -1,500 Descending Indianapolis Center
Thu 04:23:28 PM 37.9708 -86.7369 338° Northwest 258 297 7,600 -1,550 Descending Indianapolis Center
Thu 04:24:28 PM 38.0364 -86.7714 337° Northwest 264 304 6,000 -1,550 Descending Indianapolis Center
Thu 04:25:28 PM 38.1022 -86.8061 340° North 254 292 4,500 -1,050 Descending Indianapolis Center
Thu 04:26:28 PM 38.1581 -86.8322 309° West 234 269 3,900 -600 Descending Indianapolis Center
Thu 04:36:32 PM 38.2333 -86.9500 350° North  Level FlightAware Approximate
Thu 04:37:32 PM 38.2951 -86.9646 350° North  Level Estimated

Login

Don't have an account? Register now (free) for customized features, flight alerts, and more!